sensor_id;sensor_type;location;lat;lon;timestamp;pressure;altitude;pressure_sealevel;temperature;humidity
37078;BME280;22989;55.998;37.212;2023-07-29T00:00:25;43209.22;;;-145.39;62.53
37078;BME280;22989;55.998;37.212;2023-07-29T00:02:53;43215.09;;;-145.39;62.44
37078;BME280;22989;55.998;37.212;2023-07-29T00:05:18;43228.75;;;-145.39;62.53
37078;BME280;22989;55.998;37.212;2023-07-29T00:07:44;43217.03;;;-145.39;62.60
37078;BME280;22989;55.998;37.212;2023-07-29T00:10:09;43195.56;;;-145.39;62.60
37078;BME280;22989;55.998;37.212;2023-07-29T00:12:35;43219.00;;;-145.39;62.53
37078;BME280;22989;55.998;37.212;2023-07-29T00:15:00;43219.00;;;-145.39;62.70
37078;BME280;22989;55.998;37.212;2023-07-29T00:17:26;43224.84;;;-145.39;62.67
37078;BME280;22989;55.998;37.212;2023-07-29T00:19:51;43191.66;;;-145.39;62.62
37078;BME280;22989;55.998;37.212;2023-07-29T00:22:16;43209.22;;;-145.39;62.77
37078;BME280;22989;55.998;37.212;2023-07-29T00:24:42;43178.00;;;-145.39;62.70
37078;BME280;22989;55.998;37.212;2023-07-29T00:27:07;43205.31;;;-145.39;62.90
37078;BME280;22989;55.998;37.212;2023-07-29T00:29:33;43250.25;;;-145.39;62.84
37078;BME280;22989;55.998;37.212;2023-07-29T00:31:58;43242.44;;;-145.39;62.79
37078;BME280;22989;55.998;37.212;2023-07-29T00:34:24;43246.34;;;-145.39;62.75
37078;BME280;22989;55.998;37.212;2023-07-29T00:36:49;43263.91;;;-145.39;62.87
37078;BME280;22989;55.998;37.212;2023-07-29T00:39:15;43258.06;;;-145.39;62.74
37078;BME280;22989;55.998;37.212;2023-07-29T00:41:40;43256.09;;;-145.39;62.82
37078;BME280;22989;55.998;37.212;2023-07-29T00:44:05;43287.34;;;-145.39;62.87
37078;BME280;22989;55.998;37.212;2023-07-29T00:46:32;43269.78;;;-145.39;62.94
37078;BME280;22989;55.998;37.212;2023-07-29T00:48:58;43252.19;;;-145.39;62.91
37078;BME280;22989;55.998;37.212;2023-07-29T00:51:24;43271.72;;;-145.39;62.94
37078;BME280;22989;55.998;37.212;2023-07-29T00:53:49;43256.09;;;-145.39;62.82
37078;BME280;22989;55.998;37.212;2023-07-29T00:56:15;43252.19;;;-145.39;62.96
37078;BME280;22989;55.998;37.212;2023-07-29T00:58:40;43250.25;;;-145.39;62.91
37078;BME280;22989;55.998;37.212;2023-07-29T01:01:06;43254.16;;;-145.39;63.03
37078;BME280;22989;55.998;37.212;2023-07-29T01:03:31;43260.00;;;-145.39;63.08
37078;BME280;22989;55.998;37.212;2023-07-29T01:06:08;43226.81;;;-145.39;62.91
37078;BME280;22989;55.998;37.212;2023-07-29T01:08:46;43291.25;;;-145.39;62.99
37078;BME280;22989;55.998;37.212;2023-07-29T01:16:39;43326.41;;;-145.39;63.18
37078;BME280;22989;55.998;37.212;2023-07-29T01:19:07;43332.28;;;-145.39;63.32
37078;BME280;22989;55.998;37.212;2023-07-29T01:21:38;43332.28;;;-145.39;63.23
37078;BME280;22989;55.998;37.212;2023-07-29T01:24:04;43349.84;;;-145.39;63.29
37078;BME280;22989;55.998;37.212;2023-07-29T01:26:30;43363.53;;;-145.39;63.25
37078;BME280;22989;55.998;37.212;2023-07-29T01:28:58;43373.28;;;-145.39;63.28
37078;BME280;22989;55.998;37.212;2023-07-29T01:31:33;43402.56;;;-145.39;63.42
37078;BME280;22989;55.998;37.212;2023-07-29T01:34:02;43470.94;;;-145.39;63.40
37078;BME280;22989;55.998;37.212;2023-07-29T01:36:30;43486.56;;;-145.39;63.20
37078;BME280;22989;55.998;37.212;2023-07-29T01:38:59;43562.72;;;-145.39;63.47
37078;BME280;22989;55.998;37.212;2023-07-29T01:41:25;43617.41;;;-145.39;63.42
37078;BME280;22989;55.998;37.212;2023-07-29T01:43:52;43779.53;;;-145.39;63.37
37078;BME280;22989;55.998;37.212;2023-07-29T01:46:18;43873.28;;;-145.39;63.43
37078;BME280;22989;55.998;37.212;2023-07-29T01:48:43;43939.69;;;-145.39;63.53
37078;BME280;22989;55.998;37.212;2023-07-29T01:51:12;44019.78;;;-145.39;63.48
37078;BME280;22989;55.998;37.212;2023-07-29T01:53:37;44154.56;;;-145.39;63.44
37078;BME280;22989;55.998;37.212;2023-07-29T01:56:03;44254.19;;;-145.39;63.67
37078;BME280;22989;55.998;37.212;2023-07-29T01:58:30;44330.38;;;-145.39;63.60
37078;BME280;22989;55.998;37.212;2023-07-29T02:00:56;44346.00;;;-145.39;63.54
37078;BME280;22989;55.998;37.212;2023-07-29T02:03:21;44435.88;;;-145.39;63.75
37078;BME280;22989;55.998;37.212;2023-07-29T02:05:47;44474.94;;;-145.39;63.58
37078;BME280;22989;55.998;37.212;2023-07-29T02:08:13;44535.50;;;-145.39;63.62
37078;BME280;22989;55.998;37.212;2023-07-29T02:10:39;44545.25;;;-145.39;63.73
37078;BME280;22989;55.998;37.212;2023-07-29T02:13:04;44605.81;;;-145.39;63.70
37078;BME280;22989;55.998;37.212;2023-07-29T02:15:30;44588.25;;;-145.39;63.73
37078;BME280;22989;55.998;37.212;2023-07-29T02:17:55;44654.66;;;-145.39;63.76
37078;BME280;22989;55.998;37.212;2023-07-29T02:20:21;44648.81;;;-145.39;63.74
37078;BME280;22989;55.998;37.212;2023-07-29T02:22:49;44639.03;;;-145.39;63.74
37078;BME280;22989;55.998;37.212;2023-07-29T02:25:14;44642.94;;;-145.39;63.84
37078;BME280;22989;55.998;37.212;2023-07-29T02:27:40;44658.56;;;-145.39;63.88
37078;BME280;22989;55.998;37.212;2023-07-29T02:30:06;44639.03;;;-145.39;63.88
37078;BME280;22989;55.998;37.212;2023-07-29T02:32:32;44697.66;;;-145.39;63.83
37078;BME280;22989;55.998;37.212;2023-07-29T02:34:57;44652.72;;;-145.39;63.89
37078;BME280;22989;55.998;37.212;2023-07-29T02:37:22;44678.13;;;-145.39;63.82
37078;BME280;22989;55.998;37.212;2023-07-29T02:39:48;44650.75;;;-145.39;63.74
37078;BME280;22989;55.998;37.212;2023-07-29T02:42:13;44703.50;;;-145.39;63.79
37078;BME280;22989;55.998;37.212;2023-07-29T02:44:40;44674.22;;;-145.39;63.78
37078;BME280;22989;55.998;37.212;2023-07-29T02:47:05;44709.38;;;-145.39;63.86
37078;BME280;22989;55.998;37.212;2023-07-29T02:49:31;44676.16;;;-145.39;63.84
37078;BME280;22989;55.998;37.212;2023-07-29T02:51:56;44717.19;;;-145.39;63.83
37078;BME280;22989;55.998;37.212;2023-07-29T02:54:21;44658.56;;;-145.39;63.77
37078;BME280;22989;55.998;37.212;2023-07-29T02:56:47;44730.88;;;-145.39;63.95
37078;BME280;22989;55.998;37.212;2023-07-29T02:59:13;45061.06;;;-145.39;63.86
37078;BME280;22989;55.998;37.212;2023-07-29T03:01:38;44783.63;;;-145.39;63.85
37078;BME280;22989;55.998;37.212;2023-07-29T03:04:03;44857.84;;;-145.39;63.83
37078;BME280;22989;55.998;37.212;2023-07-29T03:06:29;44924.28;;;-145.39;63.87
37078;BME280;22989;55.998;37.212;2023-07-29T03:08:54;44945.78;;;-145.39;63.74
37078;BME280;22989;55.998;37.212;2023-07-29T03:11:20;44945.78;;;-145.39;63.83
37078;BME280;22989;55.998;37.212;2023-07-29T03:13:45;45004.38;;;-145.39;64.04
37078;BME280;22989;55.998;37.212;2023-07-29T03:16:15;44986.81;;;-145.39;63.83
37078;BME280;22989;55.998;37.212;2023-07-29T03:18:47;45006.34;;;-145.39;63.85
37078;BME280;22989;55.998;37.212;2023-07-29T03:21:13;44990.72;;;-145.39;63.77
37078;BME280;22989;55.998;37.212;2023-07-29T03:23:38;45055.19;;;-145.39;63.79
37078;BME280;22989;55.998;37.212;2023-07-29T03:26:04;45025.88;;;-145.39;63.75
37078;BME280;22989;55.998;37.212;2023-07-29T03:28:36;45031.75;;;-145.39;63.78
37078;BME280;22989;55.998;37.212;2023-07-29T03:31:01;45006.34;;;-145.39;63.66
37078;BME280;22989;55.998;37.212;2023-07-29T03:33:29;45006.34;;;-145.39;63.57
37078;BME280;22989;55.998;37.212;2023-07-29T03:35:54;44967.25;;;-145.39;63.63
37078;BME280;22989;55.998;37.212;2023-07-29T03:38:20;45010.25;;;-145.39;63.55
37078;BME280;22989;55.998;37.212;2023-07-29T03:40:46;45008.28;;;-145.39;63.71
37078;BME280;22989;55.998;37.212;2023-07-29T03:43:11;45027.84;;;-145.39;63.53
37078;BME280;22989;55.998;37.212;2023-07-29T03:45:37;45055.19;;;-145.39;63.53
37078;BME280;22989;55.998;37.212;2023-07-29T03:48:03;45096.22;;;-145.39;63.53
37078;BME280;22989;55.998;37.212;2023-07-29T03:50:29;45090.34;;;-145.39;63.73
37078;BME280;22989;55.998;37.212;2023-07-29T03:52:55;45127.47;;;-145.39;63.61
37078;BME280;22989;55.998;37.212;2023-07-29T03:55:20;45168.50;;;-145.39;63.59
37078;BME280;22989;55.998;37.212;2023-07-29T03:57:46;45133.34;;;-145.39;63.47
37078;BME280;22989;55.998;37.212;2023-07-29T04:00:11;45168.50;;;-145.39;63.35
37078;BME280;22989;55.998;37.212;2023-07-29T04:02:46;45133.34;;;-145.39;63.37
37078;BME280;22989;55.998;37.212;2023-07-29T04:05:12;45168.50;;;-145.39;63.44
37078;BME280;22989;55.998;37.212;2023-07-29T04:07:38;45199.78;;;-145.39;63.28
37078;BME280;22989;55.998;37.212;2023-07-29T04:10:03;45209.53;;;-145.39;63.20
37078;BME280;22989;55.998;37.212;2023-07-29T04:12:30;45190.00;;;-145.39;63.26
37078;BME280;22989;55.998;37.212;2023-07-29T04:14:55;45248.63;;;-145.39;63.16
37078;BME280;22989;55.998;37.212;2023-07-29T04:17:21;45244.72;;;-145.39;63.13
37078;BME280;22989;55.998;37.212;2023-07-29T04:19:46;45303.34;;;-145.39;63.20
37078;BME280;22989;55.998;37.212;2023-07-29T04:22:12;45262.31;;;-145.39;63.11
37078;BME280;22989;55.998;37.212;2023-07-29T04:24:37;45264.25;;;-145.39;62.96
37078;BME280;22989;55.998;37.212;2023-07-29T04:27:03;45246.66;;;-145.39;62.93
37078;BME280;22989;55.998;37.212;2023-07-29T04:29:28;45254.47;;;-145.39;62.88
37078;BME280;22989;55.998;37.212;2023-07-29T04:31:54;45238.84;;;-145.39;62.80
37078;BME280;22989;55.998;37.212;2023-07-29T04:34:19;45254.47;;;-145.39;62.67
37078;BME280;22989;55.998;37.212;2023-07-29T04:36:45;45250.56;;;-145.39;62.65
37078;BME280;22989;55.998;37.212;2023-07-29T04:39:11;45277.94;;;-145.39;62.62
37078;BME280;22989;55.998;37.212;2023-07-29T04:41:36;45264.25;;;-145.39;62.61
37078;BME280;22989;55.998;37.212;2023-07-29T04:44:02;45295.53;;;-145.39;62.52
37078;BME280;22989;55.998;37.212;2023-07-29T04:46:27;45279.88;;;-145.39;62.58
37078;BME280;22989;55.998;37.212;2023-07-29T04:48:53;45317.00;;;-145.39;62.50
37078;BME280;22989;55.998;37.212;2023-07-29T04:51:18;45340.47;;;-145.39;62.40
37078;BME280;22989;55.998;37.212;2023-07-29T04:53:44;45338.50;;;-145.39;62.33
37078;BME280;22989;55.998;37.212;2023-07-29T04:56:09;45354.13;;;-145.39;62.34
37078;BME280;22989;55.998;37.212;2023-07-29T04:58:34;45365.88;;;-145.39;62.47
37078;BME280;22989;55.998;37.212;2023-07-29T05:01:01;45346.31;;;-145.39;62.29
37078;BME280;22989;55.998;37.212;2023-07-29T05:03:26;45358.03;;;-145.39;62.04
37078;BME280;22989;55.998;37.212;2023-07-29T05:05:52;45360.00;;;-145.39;62.03
37078;BME280;22989;55.998;37.212;2023-07-29T05:08:20;45385.41;;;-145.39;62.01
37078;BME280;22989;55.998;37.212;2023-07-29T05:10:49;45338.50;;;-145.39;62.01
37078;BME280;22989;55.998;37.212;2023-07-29T05:13:15;45377.59;;;-145.39;62.23
37078;BME280;22989;55.998;37.212;2023-07-29T05:15:40;45389.31;;;-145.39;62.14
37078;BME280;22989;55.998;37.212;2023-07-29T05:18:06;45426.44;;;-145.39;62.15
37078;BME280;22989;55.998;37.212;2023-07-29T05:20:32;45404.94;;;-145.39;62.22
37078;BME280;22989;55.998;37.212;2023-07-29T05:22:57;45481.16;;;-145.39;61.96
37078;BME280;22989;55.998;37.212;2023-07-29T05:25:23;45434.25;;;-145.39;61.83
37078;BME280;22989;55.998;37.212;2023-07-29T05:27:48;45471.38;;;-145.39;61.74
37078;BME280;22989;55.998;37.212;2023-07-29T05:30:14;45449.88;;;-145.39;61.61
37078;BME280;22989;55.998;37.212;2023-07-29T05:32:39;45483.09;;;-145.39;61.49
37078;BME280;22989;55.998;37.212;2023-07-29T05:35:05;45477.25;;;-145.39;61.43
37078;BME280;22989;55.998;37.212;2023-07-29T05:37:30;45488.97;;;-145.39;61.43
37078;BME280;22989;55.998;37.212;2023-07-29T05:39:56;45438.16;;;-145.39;61.31
37078;BME280;22989;55.998;37.212;2023-07-29T05:42:21;45510.47;;;-145.39;61.37
37078;BME280;22989;55.998;37.212;2023-07-29T05:44:47;45528.03;;;-145.39;61.10
37078;BME280;22989;55.998;37.212;2023-07-29T05:47:12;45578.84;;;-145.39;60.98
37078;BME280;22989;55.998;37.212;2023-07-29T05:49:38;45553.44;;;-145.39;60.84
37078;BME280;22989;55.998;37.212;2023-07-29T05:52:04;45584.72;;;-145.39;60.65
37078;BME280;22989;55.998;37.212;2023-07-29T05:54:29;45530.00;;;-145.39;60.37
37078;BME280;22989;55.998;37.212;2023-07-29T05:56:55;45592.53;;;-145.39;60.28
37078;BME280;22989;55.998;37.212;2023-07-29T05:59:20;45565.19;;;-145.39;60.02
37078;BME280;22989;55.998;37.212;2023-07-29T06:01:49;45582.75;;;-145.39;59.89
37078;BME280;22989;55.998;37.212;2023-07-29T06:04:14;45617.94;;;-145.39;59.58
37078;BME280;22989;55.998;37.212;2023-07-29T06:06:40;45537.81;;;-145.39;59.29
37078;BME280;22989;55.998;37.212;2023-07-29T06:09:05;45543.69;;;-145.39;59.18
37078;BME280;22989;55.998;37.212;2023-07-29T06:11:31;45547.59;;;-145.39;59.34
37078;BME280;22989;55.998;37.212;2023-07-29T06:13:56;45569.09;;;-145.39;59.38
37078;BME280;22989;55.998;37.212;2023-07-29T06:16:22;45524.13;;;-145.39;59.30
37078;BME280;22989;55.998;37.212;2023-07-29T06:18:47;45512.41;;;-145.39;59.19
37078;BME280;22989;55.998;37.212;2023-07-29T06:21:13;45479.19;;;-145.39;59.00
37078;BME280;22989;55.998;37.212;2023-07-29T06:23:42;45424.47;;;-145.39;58.83
37078;BME280;22989;55.998;37.212;2023-07-29T06:26:08;45424.47;;;-145.39;58.65
37078;BME280;22989;55.998;37.212;2023-07-29T06:28:33;45403.00;;;-145.39;58.40
37078;BME280;22989;55.998;37.212;2023-07-29T06:30:59;45342.41;;;-145.39;58.23
37078;BME280;22989;55.998;37.212;2023-07-29T06:33:24;45363.91;;;-145.39;58.26
37078;BME280;22989;55.998;37.212;2023-07-29T06:35:50;45360.00;;;-145.39;58.26
37078;BME280;22989;55.998;37.212;2023-07-29T06:38:15;45363.91;;;-145.39;58.38
37078;BME280;22989;55.998;37.212;2023-07-29T06:40:44;45389.31;;;-145.39;58.31
37078;BME280;22989;55.998;37.212;2023-07-29T06:43:09;45399.06;;;-145.39;58.20
37078;BME280;22989;55.998;37.212;2023-07-29T06:45:35;45428.38;;;-145.39;58.24
37078;BME280;22989;55.998;37.212;2023-07-29T06:48:00;45430.34;;;-145.39;58.24
37078;BME280;22989;55.998;37.212;2023-07-29T06:50:26;45508.50;;;-145.39;58.51
37078;BME280;22989;55.998;37.212;2023-07-29T06:52:51;45567.13;;;-145.39;58.19
37078;BME280;22989;55.998;37.212;2023-07-29T06:55:16;45563.22;;;-145.39;58.13
37078;BME280;22989;55.998;37.212;2023-07-29T06:57:42;45543.69;;;-145.39;57.76
37078;BME280;22989;55.998;37.212;2023-07-29T07:00:07;45557.34;;;-145.39;57.78
37078;BME280;22989;55.998;37.212;2023-07-29T07:02:34;45565.19;;;-145.39;57.72
37078;BME280;22989;55.998;37.212;2023-07-29T07:05:00;45602.31;;;-145.39;57.53
37078;BME280;22989;55.998;37.212;2023-07-29T07:07:25;45531.97;;;-145.39;57.60
37078;BME280;22989;55.998;37.212;2023-07-29T07:09:51;45592.53;;;-145.39;57.75
37078;BME280;22989;55.998;37.212;2023-07-29T07:12:16;45555.41;;;-145.39;57.27
37078;BME280;22989;55.998;37.212;2023-07-29T07:14:41;45580.81;;;-145.39;57.33
37078;BME280;22989;55.998;37.212;2023-07-29T07:17:07;45530.00;;;-145.39;56.05
37078;BME280;22989;55.998;37.212;2023-07-29T07:19:32;45574.94;;;-145.39;56.35
37078;BME280;22989;55.998;37.212;2023-07-29T07:21:58;45584.72;;;-145.39;56.51
37078;BME280;22989;55.998;37.212;2023-07-29T07:24:23;45488.97;;;-145.39;56.07
37078;BME280;22989;55.998;37.212;2023-07-29T07:26:48;45526.09;;;-145.39;55.73
37078;BME280;22989;55.998;37.212;2023-07-29T07:29:14;45567.13;;;-145.39;56.14
37078;BME280;22989;55.998;37.212;2023-07-29T07:31:39;45543.69;;;-145.39;56.01
37078;BME280;22989;55.998;37.212;2023-07-29T07:34:04;45608.16;;;-145.39;56.17
37078;BME280;22989;55.998;37.212;2023-07-29T07:36:30;45612.06;;;-145.39;56.10
37078;BME280;22989;55.998;37.212;2023-07-29T07:38:56;45567.13;;;-145.39;55.50
37078;BME280;22989;55.998;37.212;2023-07-29T07:41:21;45533.91;;;-145.39;55.25
37078;BME280;22989;55.998;37.212;2023-07-29T07:43:47;45498.72;;;-145.39;54.74
37078;BME280;22989;55.998;37.212;2023-07-29T07:46:12;45516.31;;;-145.39;55.03
37078;BME280;22989;55.998;37.212;2023-07-29T07:48:38;45498.72;;;-145.39;55.02
37078;BME280;22989;55.998;37.212;2023-07-29T07:51:12;45530.00;;;-145.39;55.05
37078;BME280;22989;55.998;37.212;2023-07-29T07:53:38;45545.63;;;-145.39;55.04
37078;BME280;22989;55.998;37.212;2023-07-29T07:56:03;45559.31;;;-145.39;54.71
37078;BME280;22989;55.998;37.212;2023-07-29T07:58:29;45524.13;;;-145.39;54.61
37078;BME280;22989;55.998;37.212;2023-07-29T08:01:00;45475.28;;;-145.39;54.47
37078;BME280;22989;55.998;37.212;2023-07-29T08:03:26;45451.84;;;-145.39;54.57
37078;BME280;22989;55.998;37.212;2023-07-29T08:05:51;45461.59;;;-145.39;54.97
37078;BME280;22989;55.998;37.212;2023-07-29T08:08:16;45457.69;;;-145.39;55.00
37078;BME280;22989;55.998;37.212;2023-07-29T08:10:42;45442.06;;;-145.39;55.00
37078;BME280;22989;55.998;37.212;2023-07-29T08:13:07;45412.75;;;-145.39;54.73
37078;BME280;22989;55.998;37.212;2023-07-29T08:15:33;45352.19;;;-145.39;54.44
37078;BME280;22989;55.998;37.212;2023-07-29T08:17:58;45275.97;;;-145.39;54.58
37078;BME280;22989;55.998;37.212;2023-07-29T08:20:23;45305.28;;;-145.39;54.64
37078;BME280;22989;55.998;37.212;2023-07-29T08:22:49;45320.91;;;-145.39;54.68
37078;BME280;22989;55.998;37.212;2023-07-29T08:25:14;45303.34;;;-145.39;54.91
37078;BME280;22989;55.998;37.212;2023-07-29T08:27:40;45313.09;;;-145.39;55.01
37078;BME280;22989;55.998;37.212;2023-07-29T08:30:05;45377.59;;;-145.39;54.70
37078;BME280;22989;55.998;37.212;2023-07-29T08:32:31;45397.13;;;-145.39;54.79
37078;BME280;22989;55.998;37.212;2023-07-29T08:34:56;45465.50;;;-145.39;54.99
37078;BME280;22989;55.998;37.212;2023-07-29T08:37:22;45510.47;;;-145.39;54.93
37078;BME280;22989;55.998;37.212;2023-07-29T08:39:47;45576.91;;;-145.39;55.00
37078;BME280;22989;55.998;37.212;2023-07-29T08:42:13;45571.03;;;-145.39;54.92
37078;BME280;22989;55.998;37.212;2023-07-29T08:44:41;45571.03;;;-145.39;54.97
37078;BME280;22989;55.998;37.212;2023-07-29T08:47:06;45533.91;;;-145.39;55.25
37078;BME280;22989;55.998;37.212;2023-07-29T08:49:32;45535.88;;;-145.39;54.87
37078;BME280;22989;55.998;37.212;2023-07-29T08:51:58;45520.22;;;-145.39;54.31
37078;BME280;22989;55.998;37.212;2023-07-29T08:54:23;45551.50;;;-145.39;54.38
37078;BME280;22989;55.998;37.212;2023-07-29T08:56:49;45488.97;;;-145.39;53.91
37078;BME280;22989;55.998;37.212;2023-07-29T08:59:15;45533.91;;;-145.39;53.88
37078;BME280;22989;55.998;37.212;2023-07-29T09:01:42;45541.72;;;-145.39;53.94
37078;BME280;22989;55.998;37.212;2023-07-29T09:04:08;45522.19;;;-145.39;53.08
37078;BME280;22989;55.998;37.212;2023-07-29T09:06:33;45524.13;;;-145.39;52.76
37078;BME280;22989;55.998;37.212;2023-07-29T09:09:00;45508.50;;;-145.39;52.40
37078;BME280;22989;55.998;37.212;2023-07-29T09:11:26;45403.00;;;-145.39;52.08
37078;BME280;22989;55.998;37.212;2023-07-29T09:13:52;45332.66;;;-145.39;52.20
37078;BME280;22989;55.998;37.212;2023-07-29T09:16:18;45215.41;;;-145.39;51.55
37078;BME280;22989;55.998;37.212;2023-07-29T09:18:47;45244.72;;;-145.39;51.63
37078;BME280;22989;55.998;37.212;2023-07-29T09:21:12;45369.78;;;-145.39;52.22
37078;BME280;22989;55.998;37.212;2023-07-29T09:23:44;45418.63;;;-145.39;52.63
37078;BME280;22989;55.998;37.212;2023-07-29T09:26:10;45475.28;;;-145.39;52.53
37078;BME280;22989;55.998;37.212;2023-07-29T09:28:36;45485.06;;;-145.39;52.20
37078;BME280;22989;55.998;37.212;2023-07-29T09:31:02;45406.91;;;-145.39;51.63
37078;BME280;22989;55.998;37.212;2023-07-29T09:33:28;45422.53;;;-145.39;51.35
37078;BME280;22989;55.998;37.212;2023-07-29T09:35:53;45430.34;;;-145.39;51.31
37078;BME280;22989;55.998;37.212;2023-07-29T09:38:25;45387.34;;;-145.39;51.39
37078;BME280;22989;55.998;37.212;2023-07-29T09:40:54;45356.09;;;-145.39;51.34
37078;BME280;22989;55.998;37.212;2023-07-29T09:43:19;45318.97;;;-145.39;50.95
37078;BME280;22989;55.998;37.212;2023-07-29T09:45:51;45246.66;;;-145.39;50.42
37078;BME280;22989;55.998;37.212;2023-07-29T09:50:41;45195.88;;;-145.39;49.82
37078;BME280;22989;55.998;37.212;2023-07-29T09:53:07;45119.66;;;-145.39;50.10
37078;BME280;22989;55.998;37.212;2023-07-29T09:55:33;45135.28;;;-145.39;49.94
37078;BME280;22989;55.998;37.212;2023-07-29T09:58:00;45154.84;;;-145.39;50.48
37078;BME280;22989;55.998;37.212;2023-07-29T10:00:30;45178.28;;;-145.39;50.25
37078;BME280;22989;55.998;37.212;2023-07-29T10:02:57;45205.63;;;-145.39;50.29
37078;BME280;22989;55.998;37.212;2023-07-29T10:05:25;45184.16;;;-145.39;50.50
37078;BME280;22989;55.998;37.212;2023-07-29T10:07:51;45195.88;;;-145.39;50.74
37078;BME280;22989;55.998;37.212;2023-07-29T10:10:17;45260.34;;;-145.39;50.58
37078;BME280;22989;55.998;37.212;2023-07-29T10:12:43;45217.38;;;-145.39;50.36
37078;BME280;22989;55.998;37.212;2023-07-29T10:15:09;45238.84;;;-145.39;50.32
37078;BME280;22989;55.998;37.212;2023-07-29T10:17:36;45236.91;;;-145.39;50.46
37078;BME280;22989;55.998;37.212;2023-07-29T10:20:04;45260.34;;;-145.39;50.41
37078;BME280;22989;55.998;37.212;2023-07-29T10:22:41;45299.44;;;-145.39;50.34
37078;BME280;22989;55.998;37.212;2023-07-29T10:25:10;45309.19;;;-145.39;50.52
37078;BME280;22989;55.998;37.212;2023-07-29T10:27:43;45317.00;;;-145.39;50.36
37078;BME280;22989;55.998;37.212;2023-07-29T10:30:13;45315.06;;;-145.39;50.11
37078;BME280;22989;55.998;37.212;2023-07-29T10:32:42;45201.72;;;-145.39;50.05
37078;BME280;22989;55.998;37.212;2023-07-29T10:35:08;45174.38;;;-145.39;49.68
37078;BME280;22989;55.998;37.212;2023-07-29T10:37:34;45217.38;;;-145.39;49.39
37078;BME280;22989;55.998;37.212;2023-07-29T10:40:00;45188.06;;;-145.39;49.56
37078;BME280;22989;55.998;37.212;2023-07-29T10:42:26;45190.00;;;-145.39;49.41
37078;BME280;22989;55.998;37.212;2023-07-29T10:44:54;45229.09;;;-145.39;49.52
37078;BME280;22989;55.998;37.212;2023-07-29T10:47:27;45139.19;;;-145.39;48.38
37078;BME280;22989;55.998;37.212;2023-07-29T10:49:56;45072.78;;;-145.39;48.16
37078;BME280;22989;55.998;37.212;2023-07-29T10:54:59;45021.97;;;-145.39;48.40
37078;BME280;22989;55.998;37.212;2023-07-29T10:57:38;45039.56;;;-145.39;48.75
37078;BME280;22989;55.998;37.212;2023-07-29T11:00:07;45021.97;;;-145.39;48.82
37078;BME280;22989;55.998;37.212;2023-07-29T11:02:36;45053.22;;;-145.39;49.09
37078;BME280;22989;55.998;37.212;2023-07-29T11:05:16;45053.22;;;-145.39;48.99
37078;BME280;22989;55.998;37.212;2023-07-29T11:07:47;45041.50;;;-145.39;48.70
37078;BME280;22989;55.998;37.212;2023-07-29T11:10:13;45025.88;;;-145.39;48.44
37078;BME280;22989;55.998;37.212;2023-07-29T11:12:47;45039.56;;;-145.39;48.45
37078;BME280;22989;55.998;37.212;2023-07-29T11:18:01;45010.25;;;-145.39;48.25
37078;BME280;22989;55.998;37.212;2023-07-29T11:20:32;45008.28;;;-145.39;48.47
37078;BME280;22989;55.998;37.212;2023-07-29T11:23:00;44959.44;;;-145.39;48.52
37078;BME280;22989;55.998;37.212;2023-07-29T11:25:27;45031.75;;;-145.39;48.37
37078;BME280;22989;55.998;37.212;2023-07-29T11:27:55;44977.03;;;-145.39;48.21
37078;BME280;22989;55.998;37.212;2023-07-29T11:30:21;44977.03;;;-145.39;48.11
37078;BME280;22989;55.998;37.212;2023-07-29T11:32:53;44967.25;;;-145.39;47.91
37078;BME280;22989;55.998;37.212;2023-07-29T11:35:19;44955.53;;;-145.39;47.91
37078;BME280;22989;55.998;37.212;2023-07-29T11:37:48;44975.09;;;-145.39;47.92
37078;BME280;22989;55.998;37.212;2023-07-29T11:40:16;44943.81;;;-145.39;47.63
37078;BME280;22989;55.998;37.212;2023-07-29T11:42:42;44898.88;;;-145.39;47.64
37078;BME280;22989;55.998;37.212;2023-07-29T11:45:08;44900.84;;;-145.39;47.71
37078;BME280;22989;55.998;37.212;2023-07-29T11:47:35;44936.00;;;-145.39;47.63
37078;BME280;22989;55.998;37.212;2023-07-29T11:50:12;44867.63;;;-145.39;47.32
37078;BME280;22989;55.998;37.212;2023-07-29T11:52:42;44805.09;;;-145.39;47.17
37078;BME280;22989;55.998;37.212;2023-07-29T11:55:08;44795.34;;;-145.39;47.14
37078;BME280;22989;55.998;37.212;2023-07-29T11:57:36;44832.47;;;-145.39;47.32
37078;BME280;22989;55.998;37.212;2023-07-29T12:00:03;44840.28;;;-145.39;47.13
37078;BME280;22989;55.998;37.212;2023-07-29T12:02:36;44777.75;;;-145.39;47.12
37078;BME280;22989;55.998;37.212;2023-07-29T12:05:04;44818.78;;;-145.39;47.35
37078;BME280;22989;55.998;37.212;2023-07-29T12:07:29;44853.94;;;-145.39;47.68
37078;BME280;22989;55.998;37.212;2023-07-29T12:09:55;44852.00;;;-145.39;47.65
37078;BME280;22989;55.998;37.212;2023-07-29T12:12:24;44852.00;;;-145.39;47.69
37078;BME280;22989;55.998;37.212;2023-07-29T12:14:49;44891.06;;;-145.39;47.98
37078;BME280;22989;55.998;37.212;2023-07-29T12:17:15;44836.38;;;-145.39;47.75
37078;BME280;22989;55.998;37.212;2023-07-29T12:19:41;44797.28;;;-145.39;47.52
37078;BME280;22989;55.998;37.212;2023-07-29T12:22:08;44715.22;;;-145.39;47.54
37078;BME280;22989;55.998;37.212;2023-07-29T12:24:37;44717.19;;;-145.39;47.33
37078;BME280;22989;55.998;37.212;2023-07-29T12:27:03;44779.72;;;-145.39;47.13
37078;BME280;22989;55.998;37.212;2023-07-29T12:29:29;44758.22;;;-145.39;47.16
37078;BME280;22989;55.998;37.212;2023-07-29T12:32:02;44762.13;;;-145.39;46.88
37078;BME280;22989;55.998;37.212;2023-07-29T12:34:29;44807.06;;;-145.39;47.02
37078;BME280;22989;55.998;37.212;2023-07-29T12:36:57;44828.53;;;-145.39;47.20
37078;BME280;22989;55.998;37.212;2023-07-29T12:39:28;44807.06;;;-145.39;47.30